Latest Coastal Weather Observations for Ngayawili (Elcho Island)

IDD60701

Issued at 7:11 am CST Tuesday 16 April 2024 (issued every 10 minutes, with the page automatically refreshed every 10 minutes)

About coastal observations | Map of coastal stations | Coastal observations for NT | Marine services | Other Formats
Station Details ID: 014517 Name: NGAYAWILI Lat: -12.00 Lon: 135.57 Height: 8.1 m
Data from the previous 72 hours. | See also: Recent months at Ngayawili (Elcho Island)
Date/Time
CST
Wind Sea
Height
m
Swell Vis
km
Cloud Weather Temp
°C
Press
MSL
hPa
Rain since
9am
mm
Dir  Spd
kts
Gust
kts
Height
m
Period
s
Dir
16/07:00am SSE 7 11 - - - - - - - 27.1 1011.3 0.0
16/06:30am SSE 6 10 - - - - - - - 26.8 1011.0 0.0
16/06:00am SSE 7 9 - - - - - - - 26.6 1010.6 0.0
16/05:30am SSE 7 10 - - - - - - - 26.6 1010.2 0.0
16/05:00am SSE 7 11 - - - - - - - 26.6 1010.4 0.0
16/04:30am SSE 7 9 - - - - - - - 26.5 1010.2 0.0
16/04:00am S 6 9 - - - - - - - 26.6 1010.0 0.0
16/03:30am S 7 10 - - - - - - - 26.8 1010.1 0.0
16/03:00am S 6 9 - - - - - - - 27.0 1010.5 0.0
16/02:30am SSE 7 9 - - - - - - - 27.1 1010.8 0.0
16/02:00am S 7 9 - - - - - - - 27.2 1010.8 0.0
16/01:30am S 6 8 - - - - - - - 27.4 1011.4 0.0
16/01:00am SSE 5 7 - - - - - - - 27.4 1011.9 0.0
16/12:30am SSE 5 7 - - - - - - - 27.4 1012.3 0.0
16/12:00am SSE 4 7 - - - - - - - 27.4 1012.4 0.0
 
Date/Time
CST
Wind Sea
Height
m
Swell Vis
km
Cloud Weather Temp
°C
Press
MSL
hPa
Rain since
9am
mm
Dir  Spd
kts
Gust
kts
Height
m
Period
s
Dir
15/11:30pm S 6 8 - - - - - - - 27.3 1012.5 0.0
15/11:00pm S 5 7 - - - - - - - 27.2 1012.7 0.0
15/10:30pm SSE 5 6 - - - - - - - 27.3 1013.1 0.0
15/10:00pm SE 4 4 - - - - - - - 27.1 1013.2 0.0
15/09:30pm SE 5 6 - - - - - - - 27.1 1013.1 0.0
15/09:00pm SE 5 6 - - - - - - - 27.0 1012.9 0.0
15/08:30pm SSE 5 6 - - - - - - - 27.3 1012.5 0.0
15/08:00pm SSE 5 7 - - - - - - - 27.8 1012.0 0.0
15/07:30pm SSE 6 9 - - - - - - - 28.0 1011.4 0.0
15/07:00pm S 3 4 - - - - - - - 27.7 1011.0 0.0
15/06:30pm SE 5 6 - - - - - - - 28.3 1010.7 0.0
15/06:00pm SE 5 7 - - - - - - - 28.9 1010.7 0.0
15/05:30pm SSE 6 9 - - - - - - - 29.4 1010.6 0.0
15/05:00pm ESE 5 8 - - - - - - - 29.5 1010.9 0.0
15/04:30pm ESE 6 10 - - - - - - - 29.1 1011.1 0.0
15/04:00pm ESE 6 10 - - - - - - - 28.7 1011.4 0.0
15/03:30pm ESE 9 16 - - - - - - - 30.2 1011.2 0.0
15/03:00pm ESE 7 12 - - - - - - - 31.1 1011.1 0.0
15/02:30pm SSE 10 15 - - - - - - - 31.5 1011.2 0.0
15/02:00pm SE 8 13 - - - - - - - 31.0 1011.4 0.0
15/01:30pm SE 9 15 - - - - - - - 30.7 1011.6 0.0
15/01:00pm ESE 9 13 - - - - - - - 30.6 1012.2 0.0
15/12:30pm ESE 9 13 - - - - - - - 30.4 1012.6 0.0
15/12:00pm SE 7 11 - - - - - - - 30.7 1012.8 0.0
15/11:30am SE 9 15 - - - - - - - 30.1 1013.1 0.0
15/11:00am ESE 7 11 - - - - - - - 29.8 1013.4 0.0
15/10:30am SE 8 13 - - - - - - - 29.2 1013.7 0.0
15/10:00am SE 9 13 - - - - - - - 28.9 1013.9 0.0
15/09:30am SE 9 14 - - - - - - - 28.8 1013.7 0.0
15/09:00am SSE 7 10 - - - - - - - 27.7 1013.6 0.2
15/08:30am SSE 8 11 - - - - - - - 27.0 1013.1 0.2
15/08:00am SE 5 7 - - - - - - - 25.6 1012.8 0.2
15/07:30am SE 4 5 - - - - - - - 24.6 1012.7 0.2
15/07:00am ENE 3 5 - - - - - - - 23.8 1012.7 0.2
15/06:30am CALM 0 0 - - - - - - - 23.6 1012.5 0.2
15/06:00am CALM 0 0 - - - - - - - 23.9 1012.1 0.2
15/05:30am CALM 0 0 - - - - - - - 24.2 1012.1 0.2
15/05:00am SSE 4 5 - - - - - - - 24.4 1012.0 0.2
15/04:30am SSE 4 4 - - - - - - - 24.6 1012.1 0.2
15/04:00am SSE 3 4 - - - - - - - 24.7 1012.1 0.2
15/03:30am CALM 0 0 - - - - - - - 24.8 1012.2 0.2
15/03:00am CALM 0 0 - - - - - - - 25.0 1012.4 0.2
15/02:30am SSE 3 5 - - - - - - - 25.1 1012.5 0.2
15/02:00am SSE 4 6 - - - - - - - 25.3 1012.7 0.2
15/01:30am SSE 5 8 - - - - - - - 25.4 1013.0 0.2
15/01:00am S 4 7 - - - - - - - 25.1 1013.3 0.2
15/12:30am CALM 0 0 - - - - - - - 25.1 1013.7 0.2
15/12:00am S 4 5 - - - - - - - 25.2 1013.8 0.2
 
Date/Time
CST
Wind Sea
Height
m
Swell Vis
km
Cloud Weather Temp
°C
Press
MSL
hPa
Rain since
9am
mm
Dir  Spd
kts
Gust
kts
Height
m
Period
s
Dir
14/11:30pm SSE 4 5 - - - - - - - 25.4 1013.9 0.2
14/11:00pm SSE 4 5 - - - - - - - 25.8 1013.9 0.2
14/10:30pm SE 4 5 - - - - - - - 26.4 1013.9 0.2
14/10:00pm SE 5 6 - - - - - - - 26.6 1014.1 0.2
14/09:30pm SE 5 6 - - - - - - - 26.5 1013.8 0.2
14/09:00pm SE 4 5 - - - - - - - 26.7 1013.7 0.2
14/08:30pm ESE 4 6 - - - - - - - 27.0 1013.4 0.2
14/08:00pm E 7 13 - - - - - - - 27.0 1013.2 0.2
14/07:30pm SE 4 7 - - - - - - - 27.0 1012.9 0.2
14/07:00pm SE 5 7 - - - - - - - 27.0 1012.3 0.2
14/06:30pm SE 5 8 - - - - - - - 27.0 1011.9 0.2
14/06:00pm ESE 7 11 - - - - - - - 27.1 1011.6 0.2
14/05:30pm ESE 7 15 - - - - - - - 27.5 1011.4 0.2
14/05:00pm SE 9 15 - - - - - - - 27.8 1011.1 0.2
14/04:30pm ESE 7 11 - - - - - - - 30.5 1010.7 0.2
14/04:00pm E 7 10 - - - - - - - 30.8 1010.6 0.2
14/03:30pm ESE 7 11 - - - - - - - 30.5 1010.7 0.2
14/03:00pm E 5 7 - - - - - - - 30.8 1010.9 0.2
14/02:30pm E 7 10 - - - - - - - 31.7 1010.9 0.2
14/02:00pm E 9 15 - - - - - - - 31.4 1011.0 0.2
14/01:30pm E 9 13 - - - - - - - 31.4 1011.2 0.2
14/01:00pm ESE 9 15 - - - - - - - 30.3 1011.5 0.2
14/12:30pm ESE 8 14 - - - - - - - 32.0 1011.9 0.2
14/12:00pm SE 9 15 - - - - - - - 31.0 1012.5 0.2
14/11:30am SE 9 15 - - - - - - - 30.6 1013.0 0.2
14/11:00am ESE 9 14 - - - - - - - 30.8 1013.2 0.2
14/10:30am ESE 9 14 - - - - - - - 29.6 1013.5 0.2
14/10:00am ESE 11 16 - - - - - - - 29.8 1013.7 0.0
14/09:30am E 8 14 - - - - - - - 29.8 1013.6 0.0
14/09:00am ESE 11 16 - - - - - - - 29.0 1013.5 0.0
14/08:30am SE 9 14 - - - - - - - 28.3 1013.1 0.0
14/08:00am SE 7 11 - - - - - - - 27.5 1012.8 0.0
14/07:30am SE 7 10 - - - - - - - 26.6 1012.6 0.0
14/07:00am SE 6 8 - - - - - - - 25.5 1012.3 0.0
14/06:30am SE 5 6 - - - - - - - 25.0 1011.9 0.0
14/06:00am SE 5 7 - - - - - - - 25.3 1011.6 0.0
14/05:30am SE 5 7 - - - - - - - 25.4 1011.5 0.0
14/05:00am SE 5 9 - - - - - - - 25.7 1011.3 0.0
14/04:30am ESE 5 7 - - - - - - - 25.7 1011.3 0.0
14/04:00am ESE 7 11 - - - - - - - 26.0 1011.3 0.0
14/03:30am ESE 6 10 - - - - - - - 26.0 1011.4 0.0
14/03:00am SE 6 10 - - - - - - - 26.1 1011.4 0.0
14/02:30am SE 6 9 - - - - - - - 26.2 1011.4 0.0
14/02:00am SE 6 9 - - - - - - - 26.3 1011.6 0.0
14/01:30am SE 6 8 - - - - - - - 26.2 1011.8 0.0
14/01:00am SE 5 7 - - - - - - - 26.1 1012.0 0.0
14/12:30am SE 6 9 - - - - - - - 26.3 1012.3 0.0
14/12:00am SE 5 6 - - - - - - - 26.2 1012.5 0.0
 
Date/Time
CST
Wind Sea
Height
m
Swell Vis
km
Cloud Weather Temp
°C
Press
MSL
hPa
Rain since
9am
mm
Dir  Spd
kts
Gust
kts
Height
m
Period
s
Dir
13/11:30pm SE 5 7 - - - - - - - 26.5 1012.8 0.0
13/11:00pm SE 5 6 - - - - - - - 26.3 1012.8 0.0
13/10:30pm ESE 3 4 - - - - - - - 26.0 1013.1 0.0
13/10:00pm ESE 4 4 - - - - - - - 26.0 1013.2 0.0
13/09:30pm ESE 4 5 - - - - - - - 26.3 1013.1 0.0
13/09:00pm E 5 6 - - - - - - - 26.4 1013.0 0.0
13/08:30pm E 5 6 - - - - - - - 26.3 1012.9 0.0
13/08:00pm E 4 6 - - - - - - - 26.1 1012.4 0.0
13/07:30pm ENE 5 8 - - - - - - - 26.4 1012.1 0.0
13/07:00pm E 7 12 - - - - - - - 26.6 1011.7 0.0
13/06:30pm ENE 4 5 - - - - - - - 26.4 1011.3 0.0
13/06:00pm ENE 4 6 - - - - - - - 26.4 1011.0 0.0
13/05:30pm ENE 5 8 - - - - - - - 26.3 1010.8 0.0
13/05:00pm ENE 5 7 - - - - - - - 27.0 1010.5 0.0
13/04:30pm ENE 7 11 - - - - - - - 27.3 1010.4 0.0
13/04:00pm ENE 4 5 - - - - - - - 28.8 1010.1 0.0
13/03:30pm SE 5 7 - - - - - - - 29.5 1009.9 0.0
13/03:00pm SE 5 8 - - - - - - - 29.8 1010.1 0.0
13/02:30pm SE 4 7 - - - - - - - 29.0 1010.4 0.0
13/02:00pm ESE 7 13 - - - - - - - 28.9 1010.7 0.0
13/01:30pm ESE 6 10 - - - - - - - 29.2 1011.0 0.0
13/01:00pm ESE 5 9 - - - - - - - 28.9 1011.1 0.0
13/12:30pm ESE 8 13 - - - - - - - 29.5 1011.3 0.0
13/12:00pm ESE 8 13 - - - - - - - 29.8 1011.7 0.0
13/11:30am ESE 7 13 - - - - - - - 29.4 1012.1 0.0
13/11:00am ESE 9 15 - - - - - - - 29.4 1012.4 0.0
13/10:30am ESE 10 16 - - - - - - - 29.6 1012.5 0.0
13/10:00am SE 9 15 - - - - - - - 29.3 1012.4 0.0
13/09:30am SE 10 20 - - - - - - - 29.1 1012.1 0.0
13/09:00am SE 8 15 - - - - - - - 28.4 1011.9 83.8
13/08:30am SE 9 13 - - - - - - - 27.5 1011.7 83.8
13/08:00am SE 7 12 - - - - - - - 26.4 1011.6 83.8
13/07:30am SSE 5 7 - - - - - - - 26.0 1011.3 83.8

Other formats

Comma delimited format used in spreadsheet applications
http://www.bom.gov.au/fwo/IDD60701/IDD60701.95146.axf

JavaScript Object Notation format (JSON) in row-major order
http://www.bom.gov.au/fwo/IDD60701/IDD60701.95146.json

Data quality

Most of these data are generated automatically and are frequently updated. Quality checks on data are not normally performed. It is possible for incorrect values to appear. Refer to information at About Latest Weather Observations and please check the disclaimer before using these data.